Time;durP1;ratioP1;P1;durP2;ratioP2;P2;SDS_P1;SDS_P2;PMS_P1;PMS_P2;Temp;Humidity;BMP_temperature;BMP_pressure;BME280_temperature;BME280_humidity;BME280_pressure;Samples;Min_cycle;Max_cycle;Signal;HPM_P1;HPM_P2
2024/01/22 00:01:41;;;;;;;35.03;13.68;;;;;;;;;;5075285;28;20055;-76
2024/01/22 00:04:07;;;;;;;29.90;13.55;;;;;;;;;;5068696;28;20476;-76
2024/01/22 00:06:36;;;;;;;36.42;13.60;;;6.40;99.90;;;;;;5074943;28;20072;-76
2024/01/22 00:09:03;;;;;;;31.38;14.27;;;;;;;;;;5086468;28;20055;-76
2024/01/22 00:11:29;;;;;;;31.83;14.05;;;6.50;99.90;;;;;;5094871;28;20044;-76
2024/01/22 00:13:56;;;;;;;40.40;17.85;;;;;;;;;;5088407;28;20032;-75
2024/01/22 00:16:23;;;;;;;40.78;14.85;;;6.50;99.90;;;;;;5105459;28;20109;-76
2024/01/22 00:18:49;;;;;;;42.45;14.40;;;;;;;;;;5099209;28;20048;-76
2024/01/22 00:21:16;;;;;;;38.13;13.75;;;;;;;;;;5093764;28;20060;-76
2024/01/22 00:23:42;;;;;;;37.85;15.50;;;;;;;;;;5084408;28;20043;-77
2024/01/22 00:26:13;;;;;;;33.20;15.18;;;;;;;;;;5082773;28;20045;-76
2024/01/22 00:28:40;;;;;;;31.38;14.25;;;;;;;;;;5064421;28;20036;-76
2024/01/22 00:31:06;;;;;;;36.45;14.60;;;;;;;;;;5062309;28;20072;-76
2024/01/22 00:33:33;;;;;;;40.72;15.82;;;;;;;;;;5074722;28;20039;-76
2024/01/22 00:35:59;;;;;;;40.40;14.77;;;;;;;;;;5084973;28;20089;-76
2024/01/22 00:38:25;;;;;;;34.05;14.88;;;;;;;;;;5076793;28;20040;-76
2024/01/22 00:40:51;;;;;;;41.13;15.13;;;;;;;;;;5057590;28;20074;-76
2024/01/22 00:43:17;;;;;;;35.38;15.18;;;;;;;;;;5087624;28;20047;-76
2024/01/22 00:45:43;;;;;;;33.65;13.55;;;;;;;;;;5094224;28;20112;-76
2024/01/22 00:48:09;;;;;;;39.72;15.40;;;;;;;;;;5083406;28;20043;-76
2024/01/22 00:50:35;;;;;;;37.60;14.90;;;;;;;;;;5094170;28;20040;-76
2024/01/22 00:53:01;;;;;;;54.25;15.77;;;;;;;;;;5083846;28;20032;-76
2024/01/22 00:55:27;;;;;;;38.00;15.07;;;;;;;;;;5083174;28;20441;-76
2024/01/22 00:57:53;;;;;;;43.05;15.48;;;;;;;;;;5082707;28;20127;-76
2024/01/22 01:00:19;;;;;;;37.97;14.48;;;;;;;;;;5057044;28;20098;-75
2024/01/22 01:02:46;;;;;;;40.78;15.00;;;;;;;;;;5058209;28;20036;-75
2024/01/22 01:05:12;;;;;;;31.55;14.38;;;;;;;;;;5086102;28;20421;-75
2024/01/22 01:07:38;;;;;;;41.90;14.52;;;;;;;;;;5104353;28;20039;-74
2024/01/22 01:10:04;;;;;;;33.08;14.75;;;;;;;;;;5090399;28;20029;-72
2024/01/22 01:12:30;;;;;;;39.08;14.23;;;;;;;;;;5091557;28;20086;-72
2024/01/22 01:14:56;;;;;;;35.30;15.15;;;;;;;;;;5060727;28;20028;-72
2024/01/22 01:17:22;;;;;;;33.70;13.40;;;;;;;;;;5059387;28;20040;-72
2024/01/22 01:19:48;;;;;;;40.28;14.35;;;;;;;;;;5091084;28;20043;-71
2024/01/22 01:22:14;;;;;;;29.20;13.20;;;;;;;;;;5091953;28;20036;-72
2024/01/22 01:24:40;;;;;;;45.45;14.50;;;;;;;;;;5081963;28;20036;-72
2024/01/22 01:27:06;;;;;;;36.80;13.63;;;;;;;;;;5093419;28;20503;-75
2024/01/22 01:29:32;;;;;;;33.75;13.18;;;;;;;;;;5079725;28;20040;-75
2024/01/22 01:31:58;;;;;;;38.17;13.68;;;;;;;;;;5074532;28;20036;-74
2024/01/22 01:34:24;;;;;;;31.55;12.82;;;;;;;;;;5066043;28;20496;-74
2024/01/22 01:36:50;;;;;;;42.20;13.80;;;;;;;;;;5074442;28;20384;-74
2024/01/22 01:39:16;;;;;;;37.53;14.10;;;;;;;;;;5057006;28;20131;-73
2024/01/22 01:41:43;;;;;;;29.98;13.43;;;;;;;;;;5091697;28;20040;-74
2024/01/22 01:44:09;;;;;;;29.67;14.35;;;;;;;;;;5071909;28;20496;-74
2024/01/22 01:46:35;;;;;;;33.50;12.07;;;;;;;;;;5057382;28;20041;-74
2024/01/22 01:49:01;;;;;;;33.63;13.50;;;;;;;;;;5073698;28;20089;-73
2024/01/22 01:51:28;;;;;;;37.88;12.43;;;;;;;;;;5074026;28;20389;-72
2024/01/22 01:53:55;;;;;;;28.20;11.48;;;;;;;;;;5073440;28;20054;-72
2024/01/22 01:56:21;;;;;;;32.22;12.32;;;;;;;;;;5071092;28;20123;-72
2024/01/22 01:58:47;;;;;;;28.02;12.02;;;7.10;99.90;;;;;;5073685;28;20075;-72
2024/01/22 02:01:14;;;;;;;31.02;11.77;;;;;;;;;;5074153;28;20082;-73
2024/01/22 02:03:40;;;;;;;29.10;10.85;;;;;;;;;;5101006;28;20043;-72
2024/01/22 02:06:07;;;;;;;32.88;12.32;;;;;;;;;;5074010;28;20047;-72
2024/01/22 02:08:33;;;;;;;24.50;10.70;;;;;;;;;;5088989;28;20130;-72
2024/01/22 02:10:59;;;;;;;32.70;10.10;;;;;;;;;;5104060;28;20043;-72
2024/01/22 02:13:26;;;;;;;25.33;12.27;;;;;;;;;;5092707;28;20043;-73
2024/01/22 02:15:52;;;;;;;28.77;11.60;;;;;;;;;;5080582;28;20492;-72
2024/01/22 02:18:18;;;;;;;31.70;9.60;;;;;;;;;;5074667;28;20070;-72
2024/01/22 02:20:44;;;;;;;25.25;9.68;;;;;;;;;;5081553;28;20488;-72
2024/01/22 02:23:10;;;;;;;21.13;10.00;;;;;;;;;;5092552;28;20036;-72
2024/01/22 02:25:36;;;;;;;19.13;9.63;;;;;;;;;;5090430;28;20040;-72
2024/01/22 02:28:02;;;;;;;22.85;9.38;;;;;;;;;;5080930;28;20048;-73
2024/01/22 02:30:29;;;;;;;21.88;9.10;;;;;;;;;;5056305;28;20494;-73
2024/01/22 02:32:55;;;;;;;23.52;9.23;;;;;;;;;;5055384;28;20079;-73
2024/01/22 02:35:21;;;;;;;23.58;9.13;;;;;;;;;;5077610;28;20490;-73
2024/01/22 02:37:48;;;;;;;22.40;8.65;;;;;;;;;;5072059;28;20045;-73
2024/01/22 02:40:14;;;;;;;16.85;7.75;;;;;;;;;;5062983;28;20040;-73
2024/01/22 02:42:40;;;;;;;27.08;9.98;;;;;;;;;;5073992;28;20073;-73
2024/01/22 02:45:07;;;;;;;17.63;7.95;;;;;;;;;;5066607;28;20041;-74
2024/01/22 02:47:34;;;;;;;16.77;7.82;;;;;;;;;;5071596;28;20033;-74
2024/01/22 02:50:01;;;;;;;17.05;7.43;;;;;;;;;;5071765;28;20052;-73
2024/01/22 02:52:27;;;;;;;19.00;7.43;;;;;;;;;;5072811;28;20515;-74
2024/01/22 02:54:53;;;;;;;18.75;6.90;;;;;;;;;;5079235;28;20036;-73
2024/01/22 02:57:19;;;;;;;17.85;7.07;;;;;;;;;;5079438;28;20036;-72
2024/01/22 02:59:45;;;;;;;23.27;6.85;;;;;;;;;;5090684;28;20480;-73
2024/01/22 03:02:11;;;;;;;16.40;6.80;;;;;;;;;;5073653;28;20062;-73
2024/01/22 03:04:37;;;;;;;17.23;6.90;;;;;;;;;;5085361;28;20090;-73
2024/01/22 03:07:04;;;;;;;17.95;6.70;;;;;;;;;;5071995;28;20051;-72
2024/01/22 03:09:30;;;;;;;14.48;6.47;;;;;;;;;;5063938;28;20032;-73
2024/01/22 03:11:56;;;;;;;10.73;5.72;;;;;;;;;;5072544;28;20037;-72
2024/01/22 03:14:22;;;;;;;15.52;6.38;;;;;;;;;;5078044;28;20396;-72
2024/01/22 03:16:48;;;;;;;12.82;5.75;;;;;;;;;;5072494;28;20091;-72
2024/01/22 03:19:14;;;;;;;11.48;5.47;;;;;;;;;;5083212;28;20097;-72
2024/01/22 03:21:40;;;;;;;9.02;5.35;;;;;;;;;;5073667;28;20065;-72
2024/01/22 03:24:06;;;;;;;8.77;5.03;;;;;;;;;;5081481;28;20049;-72
2024/01/22 03:26:32;;;;;;;10.43;5.05;;;;;;;;;;5074129;28;20036;-72
2024/01/22 03:28:58;;;;;;;12.82;5.22;;;;;;;;;;5073208;28;20067;-72
2024/01/22 03:31:32;;;;;;;8.52;4.82;;;7.60;99.90;;;;;;5085520;28;20043;-72
2024/01/22 03:33:58;;;;;;;15.65;4.88;;;;;;;;;;5115651;28;20047;-72
2024/01/22 03:36:25;;;;;;;10.30;5.28;;;;;;;;;;5092240;28;20036;-72
2024/01/22 03:38:51;;;;;;;11.63;4.65;;;;;;;;;;5103602;28;20055;-72
2024/01/22 03:41:17;;;;;;;9.30;4.40;;;;;;;;;;5083306;28;20062;-72
2024/01/22 03:43:44;;;;;;;7.38;4.35;;;8.10;99.90;;;;;;5069865;28;20044;-72
2024/01/22 03:46:11;;;;;;;8.57;4.43;;;;;;;;;;5088716;28;20076;-72
2024/01/22 03:48:37;;;;;;;8.55;3.90;;;;;;;;;;5078695;28;20177;-73
2024/01/22 03:51:04;;;;;;;7.13;3.75;;;;;;;;;;5077647;28;20041;-73
2024/01/22 03:53:30;;;;;;;8.20;3.95;;;;;;;;;;5080133;28;20063;-73
2024/01/22 03:55:56;;;;;;;7.82;3.75;;;;;;;;;;5084868;28;20054;-72
2024/01/22 03:58:23;;;;;;;6.03;3.95;;;;;;;;;;5066716;28;20039;-74
2024/01/22 04:00:49;;;;;;;6.45;3.10;;;;;;;;;;5086033;28;20040;-73
2024/01/22 04:03:15;;;;;;;6.50;3.92;;;;;;;;;;5074789;28;20042;-74
2024/01/22 04:05:42;;;;;;;6.35;3.65;;;;;;;;;;5074431;28;20040;-74
2024/01/22 04:08:08;;;;;;;7.05;3.60;;;;;;;;;;5075732;28;20124;-74
2024/01/22 04:10:34;;;;;;;6.05;3.47;;;;;;;;;;5075496;28;20112;-74
2024/01/22 04:13:01;;;;;;;7.60;3.35;;;;;;;;;;5074545;28;20047;-74
2024/01/22 04:15:27;;;;;;;8.73;3.45;;;;;;;;;;5074946;28;20131;-74
2024/01/22 04:17:53;;;;;;;5.18;3.22;;;;;;;;;;5080634;28;20036;-74
2024/01/22 04:20:19;;;;;;;6.18;3.03;;;;;;;;;;5092423;28;20127;-74
2024/01/22 04:22:45;;;;;;;7.53;3.42;;;;;;;;;;5094585;28;20524;-74
2024/01/22 04:25:11;;;;;;;5.00;3.25;;;;;;;;;;5075250;28;20048;-74
2024/01/22 04:27:37;;;;;;;4.60;3.03;;;;;;;;;;5092453;28;20492;-74
2024/01/22 04:30:03;;;;;;;5.25;3.22;;;;;;;;;;5075665;28;20036;-74
2024/01/22 04:32:30;;;;;;;3.88;2.90;;;;;;;;;;5074166;28;20127;-73
2024/01/22 04:34:56;;;;;;;5.18;3.22;;;;;;;;;;5088881;28;20064;-74
2024/01/22 04:37:22;;;;;;;5.25;3.15;;;;;;;;;;5082639;28;20041;-73
2024/01/22 04:39:48;;;;;;;4.13;2.90;;;;;;;;;;5060437;28;20040;-73
2024/01/22 04:42:20;;;;;;;6.18;3.08;;;;;;;;;;5092225;28;20127;-72
2024/01/22 04:44:46;;;;;;;3.63;2.63;;;;;;;;;;5078716;28;20045;-74
2024/01/22 04:47:12;;;;;;;4.15;2.65;;;;;;;;;;5073839;28;20036;-74
2024/01/22 04:49:38;;;;;;;6.85;2.95;;;;;;;;;;5073645;28;20040;-73
2024/01/22 04:52:06;;;;;;;6.10;2.80;;;8.80;99.90;;;;;;5073696;28;20040;-74
2024/01/22 04:54:32;;;;;;;5.45;2.55;;;;;;;;;;5076065;28;20032;-73
2024/01/22 04:56:58;;;;;;;3.45;2.60;;;;;;;;;;5093364;28;20460;-74
2024/01/22 04:59:25;;;;;;;4.28;3.05;;;;;;;;;;5090225;28;20032;-73
2024/01/22 05:01:51;;;;;;;4.97;2.33;;;;;;;;;;5058530;28;20048;-73
2024/01/22 05:04:17;;;;;;;2.83;2.55;;;;;;;;;;5089652;28;20044;-72
2024/01/22 05:06:43;;;;;;;4.03;2.38;;;;;;;;;;5093818;28;20400;-74
2024/01/22 05:09:09;;;;;;;3.97;2.60;;;;;;;;;;5056899;28;20068;-74
2024/01/22 05:11:35;;;;;;;2.63;2.05;;;;;;;;;;5057316;28;20052;-74
2024/01/22 05:14:03;;;;;;;2.30;2.10;;;;;;;;;;5073463;28;20362;-74
2024/01/22 05:16:29;;;;;;;3.95;2.33;;;;;;;;;;5082181;28;20095;-74
2024/01/22 05:18:55;;;;;;;2.85;2.15;;;;;;;;;;5056837;28;20097;-75
2024/01/22 05:21:24;;;;;;;5.95;2.33;;;;;;;;;;5094051;28;20044;-74
2024/01/22 05:23:50;;;;;;;7.00;2.47;;;;;;;;;;5077578;28;20047;-74
2024/01/22 05:26:16;;;;;;;5.72;2.60;;;;;;;;;;5059211;28;20037;-74
2024/01/22 05:28:42;;;;;;;3.70;2.33;;;;;;;;;;5073991;28;20036;-74
2024/01/22 05:31:08;;;;;;;5.20;2.33;;;;;;;;;;5073187;28;20129;-74
2024/01/22 05:33:34;;;;;;;5.72;1.90;;;;;;;;;;5073511;28;20074;-74
2024/01/22 05:36:00;;;;;;;8.38;2.00;;;;;;;;;;5073078;28;20064;-74
2024/01/22 05:38:26;;;;;;;8.88;2.20;;;;;;;;;;5073116;28;20217;-74
2024/01/22 05:40:53;;;;;;;5.22;2.20;;;;;;;;;;5072912;28;20128;-73
2024/01/22 05:43:19;;;;;;;7.63;2.40;;;;;;;;;;5067896;28;20043;-73
2024/01/22 05:45:45;;;;;;;7.78;2.15;;;;;;;;;;5093168;28;20036;-73
2024/01/22 05:48:11;;;;;;;12.07;2.17;;;;;;;;;;5091486;28;20036;-73
2024/01/22 05:50:37;;;;;;;11.65;2.42;;;;;;;;;;5073207;28;20044;-73
2024/01/22 05:53:03;;;;;;;11.60;2.40;;;;;;;;;;5072795;28;20040;-74
2024/01/22 05:55:29;;;;;;;11.68;2.72;;;;;;;;;;5091509;28;20055;-73
2024/01/22 05:57:56;;;;;;;13.77;2.78;;;;;;;;;;5091143;28;20468;-73
2024/01/22 06:00:22;;;;;;;11.98;3.15;;;;;;;;;;5075689;28;20481;-73
2024/01/22 06:02:48;;;;;;;10.02;2.80;;;;;;;;;;5072536;28;20131;-73
2024/01/22 06:05:14;;;;;;;12.73;3.28;;;;;;;;;;5072548;28;20040;-73
2024/01/22 06:07:41;;;;;;;18.67;3.92;;;;;;;;;;5072429;28;20052;-73
2024/01/22 06:10:07;;;;;;;13.60;3.08;;;;;;;;;;5072512;28;20043;-73
2024/01/22 06:12:37;;;;;;;11.95;2.38;;;;;;;;;;5060542;28;20154;-73
2024/01/22 06:15:03;;;;;;;12.07;2.75;;;;;;;;;;5087349;28;20028;-73
2024/01/22 06:17:32;;;;;;;14.40;2.90;;;;;;;;;;5061506;28;20572;-72
2024/01/22 06:20:02;;;;;;;15.65;2.78;;;;;;;;;;5055287;28;20047;-73
2024/01/22 06:22:29;;;;;;;23.45;3.05;;;;;;;;;;5055811;28;20510;-73
2024/01/22 06:24:55;;;;;;;14.60;2.92;;;;;;;;;;5073590;28;20040;-73
2024/01/22 06:27:21;;;;;;;20.42;3.90;;;;;;;;;;5086976;28;20495;-73
2024/01/22 06:29:48;;;;;;;21.70;4.35;;;;;;;;;;5087245;28;20051;-73
2024/01/22 06:32:15;;;;;;;23.67;3.80;;;;;;;;;;5072065;28;20037;-73
2024/01/22 06:34:41;;;;;;;21.50;3.88;;;;;;;;;;5081838;28;20115;-73
2024/01/22 06:37:07;;;;;;;27.52;5.10;;;;;;;;;;5073352;28;20593;-72
2024/01/22 06:39:33;;;;;;;26.15;3.53;;;;;;;;;;5055298;28;20380;-73
2024/01/22 06:41:59;;;;;;;21.13;3.58;;;;;;;;;;5087974;28;20109;-73
2024/01/22 06:44:25;;;;;;;29.05;5.63;;;;;;;;;;5092175;28;20047;-73
2024/01/22 06:46:52;;;;;;;27.75;3.85;;;;;;;;;;5074810;28;20048;-73
2024/01/22 06:49:18;;;;;;;27.92;4.15;;;;;;;;;;5073184;28;20037;-74
2024/01/22 06:51:44;;;;;;;33.67;5.35;;;;;;;;;;5073365;28;20103;-73
2024/01/22 06:54:10;;;;;;;38.58;4.70;;;;;;;;;;5060567;28;20093;-73
2024/01/22 06:56:36;;;;;;;35.50;6.35;;;;;;;;;;5078781;28;20032;-72
2024/01/22 06:59:03;;;;;;;34.17;5.38;;;;;;;;;;5065595;28;20048;-73
2024/01/22 07:01:29;;;;;;;32.45;5.38;;;;;;;;;;5089535;28;20042;-73
2024/01/22 07:03:55;;;;;;;35.25;5.38;;;;;;;;;;5106865;28;20066;-73
2024/01/22 07:06:21;;;;;;;28.52;4.05;;;;;;;;;;5096190;28;20040;-75
2024/01/22 07:08:47;;;;;;;35.13;6.40;;;;;;;;;;5081681;28;20713;-74
2024/01/22 07:11:13;;;;;;;25.25;4.63;;;;;;;;;;5105866;28;20059;-73
2024/01/22 07:13:39;;;;;;;33.75;5.25;;;;;;;;;;5100766;28;20039;-74
2024/01/22 07:16:08;;;;;;;34.83;5.47;;;;;;;;;;5096157;28;20044;-74
2024/01/22 07:18:35;;;;;;;38.13;6.05;;;;;;;;;;5097668;28;20040;-74
2024/01/22 07:21:01;;;;;;;31.55;6.45;;;;;;;;;;5103236;28;20045;-74
2024/01/22 07:23:27;;;;;;;32.63;5.20;;;;;;;;;;5089340;28;20043;-74
2024/01/22 07:25:55;;;;;;;49.45;6.22;;;;;;;;;;5070746;28;20165;-74
2024/01/22 07:28:21;;;;;;;40.67;6.10;;;;;;;;;;5068843;28;20044;-74
2024/01/22 07:30:47;;;;;;;36.45;5.18;;;;;;;;;;5063513;28;21440;-72
2024/01/22 07:33:13;;;;;;;36.40;6.68;;;;;;;;;;5085373;28;20613;-72
2024/01/22 07:35:39;;;;;;;30.27;5.95;;;;;;;;;;5078406;28;20041;-72
2024/01/22 07:38:06;;;;;;;21.85;4.13;;;;;;;;;;5080748;28;20047;-72
2024/01/22 07:40:32;;;;;;;29.23;6.47;;;;;;;;;;5078510;28;20051;-72
2024/01/22 07:42:58;;;;;;;32.42;5.80;;;;;;;;;;5070549;28;20043;-71
2024/01/22 07:45:24;;;;;;;24.73;4.05;;;;;;;;;;5083756;28;20195;-71
2024/01/22 07:47:50;;;;;;;22.20;3.95;;;;;;;;;;5083456;28;20040;-72
2024/01/22 07:50:17;;;;;;;19.23;3.83;;;;;;;;;;5077679;28;20101;-72
2024/01/22 07:52:43;;;;;;;20.25;3.85;;;;;;;;;;5078484;28;20055;-72
2024/01/22 07:55:13;;;;;;;21.63;3.92;;;;;;;;;;5078194;28;20374;-73
2024/01/22 07:57:39;;;;;;;20.00;3.42;;;;;;;;;;5077640;28;20055;-72
2024/01/22 08:00:14;;;;;;;24.42;3.85;;;;;;;;;;5070136;28;20063;-72
2024/01/22 08:02:40;;;;;;;25.27;4.65;;;;;;;;;;5081606;28;20052;-72
2024/01/22 08:05:07;;;;;;;23.60;4.82;;;;;;;;;;5080391;28;20044;-72
2024/01/22 08:07:33;;;;;;;25.85;4.50;;;9.60;99.90;;;;;;5082078;28;20071;-72
2024/01/22 08:09:59;;;;;;;22.10;3.40;;;;;;;;;;5061492;28;20040;-72
2024/01/22 08:12:25;;;;;;;26.33;4.60;;;;;;;;;;5089878;28;20039;-74
2024/01/22 08:14:51;;;;;;;31.30;4.97;;;;;;;;;;5082293;28;20085;-74
2024/01/22 08:17:17;;;;;;;23.77;5.03;;;;;;;;;;5060695;28;20507;-74
2024/01/22 08:19:45;;;;;;;23.55;5.28;;;;;;;;;;5060682;28;20561;-74
2024/01/22 08:22:11;;;;;;;23.70;3.80;;;;;;;;;;5059619;28;20132;-73
2024/01/22 08:24:37;;;;;;;27.48;4.55;;;;;;;;;;5075377;28;20076;-73
2024/01/22 08:27:03;;;;;;;38.63;6.30;;;;;;;;;;5058159;28;20492;-74
2024/01/22 08:29:29;;;;;;;27.30;5.43;;;;;;;;;;5074930;28;20047;-74
2024/01/22 08:31:56;;;;;;;41.88;6.10;;;;;;;;;;5057844;28;20037;-74
2024/01/22 08:34:22;;;;;;;35.05;7.63;;;;;;;;;;5082843;28;20385;-74
2024/01/22 08:36:48;;;;;;;43.65;5.70;;;;;;;;;;5075376;28;20045;-80
2024/01/22 08:39:14;;;;;;;49.95;6.97;;;;;;;;;;5073645;28;20429;-75
2024/01/22 08:41:40;;;;;;;54.22;7.28;;;;;;;;;;5069927;28;20124;-75
2024/01/22 08:44:06;;;;;;;56.97;8.00;;;;;;;;;;5083303;28;20389;-75
2024/01/22 08:46:32;;;;;;;55.03;9.05;;;;;;;;;;5086021;28;20044;-75
2024/01/22 08:48:59;;;;;;;51.58;7.55;;;;;;;;;;5082582;28;20442;-74
2024/01/22 08:51:25;;;;;;;53.58;7.72;;;;;;;;;;5082334;28;20039;-74
2024/01/22 08:53:51;;;;;;;50.35;7.50;;;;;;;;;;5079790;28;20075;-73
2024/01/22 08:56:17;;;;;;;45.25;6.20;;;;;;;;;;5088632;28;20065;-74
2024/01/22 08:58:43;;;;;;;54.53;7.75;;;;;;;;;;5062275;28;20036;-77
2024/01/22 09:01:10;;;;;;;43.47;7.07;;;;;;;;;;5057443;28;20036;-75
2024/01/22 09:03:36;;;;;;;48.92;7.10;;;;;;;;;;5075021;28;20087;-75
2024/01/22 09:06:06;;;;;;;47.88;7.47;;;;;;;;;;5076855;28;20040;-74
2024/01/22 09:08:34;;;;;;;56.75;7.30;;;;;;;;;;5086719;28;20028;-75
2024/01/22 09:11:02;;;;;;;59.20;8.25;;;;;;;;;;5085075;28;20040;-70
2024/01/22 09:13:29;;;;;;;41.25;6.93;;;;;;;;;;5090187;28;20036;-71
2024/01/22 09:15:57;;;;;;;43.50;6.88;;;;;;;;;;5084092;28;20084;-77
2024/01/22 09:18:23;;;;;;;45.35;7.93;;;;;;;;;;5072485;28;20500;-70
2024/01/22 09:20:49;;;;;;;45.25;6.65;;;;;;;;;;5086078;28;20079;-80
2024/01/22 09:23:16;;;;;;;49.85;6.38;;;;;;;;;;5057716;28;20062;-75
2024/01/22 09:25:42;;;;;;;42.38;6.38;;;;;;;;;;5084788;28;20430;-75
2024/01/22 09:28:08;;;;;;;36.97;7.13;;;;;;;;;;5075654;28;20445;-75
2024/01/22 09:30:34;;;;;;;43.00;7.13;;;;;;;;;;5080100;28;20036;-75
2024/01/22 09:33:00;;;;;;;39.47;6.53;;;;;;;;;;5087234;28;20498;-75
2024/01/22 09:35:26;;;;;;;41.92;7.82;;;;;;;;;;5074171;28;20036;-75
2024/01/22 09:37:54;;;;;;;36.25;5.82;;;;;;;;;;5075787;28;20051;-75
2024/01/22 09:40:25;;;;;;;46.05;6.65;;;9.50;99.90;;;;;;5080673;28;20365;-75
2024/01/22 09:42:53;;;;;;;40.53;6.57;;;;;;;;;;5070952;28;20047;-75
2024/01/22 09:45:20;;;;;;;27.83;6.07;;;;;;;;;;5073681;28;20067;-75
2024/01/22 09:47:46;;;;;;;35.05;6.30;;;;;;;;;;5089352;28;20051;-75
2024/01/22 09:50:12;;;;;;;39.08;7.43;;;;;;;;;;5087526;28;20036;-75
2024/01/22 09:52:44;;;;;;;27.38;4.72;;;;;;;;;;5075518;28;20484;-75
2024/01/22 09:55:10;;;;;;;33.75;5.10;;;;;;;;;;5086487;28;20032;-74
2024/01/22 09:57:37;;;;;;;29.08;5.50;;;;;;;;;;5078515;28;20040;-74
2024/01/22 10:00:04;;;;;;;34.65;5.30;;;;;;;;;;5071697;28;20448;-75
2024/01/22 10:02:30;;;;;;;32.05;4.85;;;;;;;;;;5081336;28;20042;-74
2024/01/22 10:04:58;;;;;;;32.50;4.68;;;;;;;;;;5091812;28;20052;-74
2024/01/22 10:07:24;;;;;;;28.65;4.63;;;;;;;;;;5072567;28;20123;-75
2024/01/22 10:09:50;;;;;;;26.63;4.65;;;;;;;;;;5075011;28;20039;-72
2024/01/22 10:12:16;;;;;;;31.13;5.03;;;;;;;;;;5085349;28;20028;-68
2024/01/22 10:14:42;;;;;;;24.42;4.45;;;;;;;;;;5088173;28;20337;-68
2024/01/22 10:17:24;;;;;;;25.00;4.18;;;9.50;99.90;;;;;;5088064;28;20059;-71
2024/01/22 10:19:51;;;;;;;20.95;3.70;;;;;;;;;;5098887;28;20119;-70
2024/01/22 10:22:19;;;;;;;22.30;3.60;;;;;;;;;;5069424;28;20079;-71
2024/01/22 10:24:57;;;;;;;21.33;4.00;;;;;;;;;;5086768;28;20068;-71
2024/01/22 10:27:24;;;;;;;29.45;5.30;;;;;;;;;;5092675;28;20040;-71
2024/01/22 10:29:50;;;;;;;22.50;3.60;;;;;;;;;;5095981;28;20032;-71
2024/01/22 10:32:24;;;;;;;22.15;3.97;;;;;;;;;;5098391;28;20067;-71
2024/01/22 10:34:53;;;;;;;28.10;4.43;;;;;;;;;;5090976;28;20046;-70
2024/01/22 10:37:19;;;;;;;25.73;4.68;;;;;;;;;;5068294;28;20052;-71
2024/01/22 10:39:47;;;;;;;31.42;4.63;;;;;;;;;;5102873;28;20045;-79
2024/01/22 10:42:14;;;;;;;24.55;4.65;;;;;;;;;;5094039;28;20059;-75
2024/01/22 10:44:42;;;;;;;47.33;5.28;;;9.70;99.90;;;;;;5101454;28;20032;-72
2024/01/22 10:47:09;;;;;;;25.80;5.57;;;;;;;;;;5070937;28;20032;-71
2024/01/22 10:49:35;;;;;;;27.75;3.97;;;;;;;;;;5070146;28;20379;-71
2024/01/22 10:52:03;;;;;;;26.75;5.25;;;;;;;;;;5078500;28;20040;-71
2024/01/22 10:54:36;;;;;;;24.73;4.35;;;;;;;;;;5081452;28;20028;-71
2024/01/22 10:57:09;;;;;;;23.35;3.85;;;;;;;;;;5083271;28;20150;-71
2024/01/22 10:59:36;;;;;;;21.55;5.10;;;;;;;;;;5076936;28;20032;-71
2024/01/22 11:02:06;;;;;;;26.27;4.57;;;;;;;;;;5074059;28;20051;-72
2024/01/22 11:04:43;;;;;;;19.50;4.07;;;;;;;;;;5082517;28;20169;-71
2024/01/22 11:07:10;;;;;;;23.05;4.63;;;;;;;;;;5070008;28;20044;-71
2024/01/22 11:09:37;;;;;;;25.27;4.93;;;;;;;;;;5081141;28;20037;-71
2024/01/22 11:12:05;;;;;;;28.65;4.63;;;;;;;;;;5063902;28;20032;-72
2024/01/22 11:14:32;;;;;;;32.42;3.60;;;;;;;;;;5056623;28;20477;-72
2024/01/22 11:16:58;;;;;;;23.55;3.85;;;;;;;;;;5069271;28;20059;-72
2024/01/22 11:19:24;;;;;;;25.55;4.97;;;;;;;;;;5072720;28;20040;-72
2024/01/22 11:21:52;;;;;;;24.45;3.42;;;;;;;;;;5075747;28;20036;-72
2024/01/22 11:24:19;;;;;;;24.95;3.72;;;;;;;;;;5073026;28;20403;-72
2024/01/22 11:26:45;;;;;;;16.40;3.17;;;;;;;;;;5084982;28;20050;-72
2024/01/22 11:29:14;;;;;;;22.17;4.78;;;;;;;;;;5081752;28;20041;-72
2024/01/22 11:31:40;;;;;;;22.08;4.25;;;;;;;;;;5085044;28;20040;-72
2024/01/22 11:34:06;;;;;;;19.77;4.05;;;;;;;;;;5078299;28;20040;-72
2024/01/22 11:36:53;;;;;;;23.23;4.38;;;10.30;99.90;;;;;;5084050;28;20044;-72
2024/01/22 11:39:43;;;;;;;22.50;3.75;;;;;;;;;;5082936;28;20427;-73
2024/01/22 11:42:20;;;;;;;20.40;4.30;;;;;;;;;;5072595;28;20044;-71
2024/01/22 11:44:50;;;;;;;20.70;4.18;;;;;;;;;;5082477;28;20044;-72
2024/01/22 11:47:17;;;;;;;25.00;3.80;;;;;;;;;;5080735;28;20045;-72
2024/01/22 11:49:43;;;;;;;22.08;4.65;;;;;;;;;;5079044;28;20036;-71
2024/01/22 11:52:21;;;;;;;22.63;3.92;;;;;;;;;;5059881;28;20050;-71
2024/01/22 11:54:55;;;;;;;22.95;3.63;;;;;;;;;;5080691;28;20492;-74
2024/01/22 11:57:21;;;;;;;17.92;4.75;;;;;;;;;;5086075;28;20111;-74
2024/01/22 11:59:57;;;;;;;15.80;3.85;;;;;;;;;;5086322;28;20056;-74
2024/01/22 12:02:23;;;;;;;18.90;4.38;;;;;;;;;;5063623;28;20093;-71
2024/01/22 12:04:58;;;;;;;22.83;3.83;;;;;;;;;;5086296;28;20131;-71
2024/01/22 12:07:34;;;;;;;22.38;3.65;;;;;;;;;;5081854;28;20036;-71
2024/01/22 12:10:00;;;;;;;30.17;4.78;;;;;;;;;;5064274;28;20043;-71
2024/01/22 12:12:27;;;;;;;20.55;3.95;;;;;;;;;;5084572;28;20516;-70
2024/01/22 12:14:56;;;;;;;20.50;3.55;;;;;;;;;;5079960;28;20071;-72
2024/01/22 12:17:23;;;;;;;19.17;3.17;;;;;;;;;;5073462;28;20097;-71
2024/01/22 12:19:53;;;;;;;17.27;3.50;;;;;;;;;;5066053;28;20106;-71
2024/01/22 12:22:20;;;;;;;20.63;3.53;;;;;;;;;;5067146;28;20036;-71
2024/01/22 12:25:01;;;;;;;19.60;3.58;;;;;;;;;;5074657;28;20040;-72
2024/01/22 12:27:28;;;;;;;26.05;4.32;;;;;;;;;;5074463;28;20048;-71
2024/01/22 12:30:01;;;;;;;23.35;6.07;;;;;;;;;;5058136;28;20037;-71
2024/01/22 12:32:27;;;;;;;30.17;4.68;;;;;;;;;;5041171;28;20068;-71
2024/01/22 12:35:00;;;;;;;34.78;5.40;;;;;;;;;;5074221;28;20032;-71
2024/01/22 12:37:30;;;;;;;24.88;4.38;;;;;;;;;;5074463;28;20043;-71
2024/01/22 12:40:14;;;;;;;20.75;4.18;;;;;;;;;;5072745;28;20075;-72
2024/01/22 12:42:51;;;;;;;27.15;4.88;;;10.40;99.90;;;;;;5074390;28;20048;-72
2024/01/22 12:45:21;;;;;;;28.00;5.10;;;10.30;99.90;;;;;;5057789;28;20473;-71
2024/01/22 12:47:48;;;;;;;23.63;4.82;;;;;;;;;;5074137;28;20059;-72
2024/01/22 12:50:17;;;;;;;18.77;4.10;;;10.20;99.90;;;;;;5073906;28;20488;-72
2024/01/22 12:52:44;;;;;;;22.60;4.47;;;;;;;;;;5073965;28;20041;-72
2024/01/22 12:55:10;;;;;;;22.83;4.55;;;;;;;;;;5091819;28;20044;-72
2024/01/22 12:57:36;;;;;;;24.27;4.45;;;;;;;;;;5077710;28;20388;-71
2024/01/22 13:00:06;;;;;;;24.17;4.60;;;;;;;;;;5110696;28;20044;-72
2024/01/22 13:02:32;;;;;;;20.92;4.32;;;;;;;;;;5094229;28;20134;-72
2024/01/22 13:04:59;;;;;;;37.80;5.80;;;;;;;;;;5110738;28;20040;-72
2024/01/22 13:07:25;;;;;;;23.35;4.18;;;;;;;;;;5110811;28;20040;-72
2024/01/22 13:09:51;;;;;;;26.40;4.45;;;;;;;;;;5078938;28;20040;-72
2024/01/22 13:12:17;;;;;;;27.63;4.75;;;;;;;;;;5056328;28;20405;-72
2024/01/22 13:14:46;;;;;;;25.75;4.63;;;;;;;;;;5073562;28;20045;-73
2024/01/22 13:17:12;;;;;;;27.55;4.50;;;;;;;;;;5057004;28;20401;-72
2024/01/22 13:19:38;;;;;;;25.23;4.60;;;;;;;;;;5073303;28;20106;-72
2024/01/22 13:22:04;;;;;;;23.48;5.60;;;;;;;;;;5056824;28;20036;-72
2024/01/22 13:24:31;;;;;;;25.20;5.03;;;;;;;;;;5073837;28;20423;-72
2024/01/22 13:26:57;;;;;;;27.30;5.20;;;;;;;;;;5073665;28;20377;-72
2024/01/22 13:29:23;;;;;;;34.47;5.70;;;;;;;;;;5073356;28;20123;-72
2024/01/22 13:31:50;;;;;;;24.25;4.20;;;;;;;;;;5057007;28;20123;-72
2024/01/22 13:34:16;;;;;;;31.40;5.47;;;;;;;;;;5073606;28;20041;-72
2024/01/22 13:36:42;;;;;;;30.40;5.85;;;;;;;;;;5073565;28;20044;-72
2024/01/22 13:39:09;;;;;;;30.95;5.38;;;;;;;;;;5073522;28;20064;-72
2024/01/22 13:41:35;;;;;;;27.30;4.95;;;;;;;;;;5057236;28;20074;-72
2024/01/22 13:44:05;;;;;;;19.23;3.75;;;;;;;;;;5079223;28;20035;-72
2024/01/22 13:46:32;;;;;;;32.63;4.68;;;;;;;;;;5080167;28;20052;-72
2024/01/22 13:48:59;;;;;;;25.30;4.68;;;;;;;;;;5086479;28;20043;-72
2024/01/22 13:51:25;;;;;;;24.88;5.00;;;;;;;;;;5102632;28;20040;-73
2024/01/22 13:53:51;;;;;;;28.42;5.47;;;;;;;;;;5117257;28;20477;-73
2024/01/22 13:56:18;;;;;;;25.95;4.10;;;;;;;;;;5084365;28;20066;-72
2024/01/22 13:58:44;;;;;;;23.88;4.72;;;;;;;;;;5086633;28;20040;-72
2024/01/22 14:01:10;;;;;;;27.40;4.60;;;;;;;;;;5090619;28;20035;-73
2024/01/22 14:03:38;;;;;;;25.90;5.05;;;;;;;;;;5085911;28;20040;-72
2024/01/22 14:06:06;;;;;;;27.77;4.22;;;;;;;;;;5060891;28;20058;-72
2024/01/22 14:08:33;;;;;;;30.48;4.95;;;;;;;;;;5059319;28;20395;-73
2024/01/22 14:10:59;;;;;;;26.50;4.53;;;;;;;;;;5074687;28;20644;-73
2024/01/22 14:13:25;;;;;;;31.10;5.20;;;;;;;;;;5073877;28;20060;-72
2024/01/22 14:15:51;;;;;;;29.45;4.85;;;;;;;;;;5038430;28;20056;-73
2024/01/22 14:18:19;;;;;;;29.08;5.40;;;;;;;;;;5072729;28;20059;-73
2024/01/22 14:20:49;;;;;;;26.27;5.22;;;;;;;;;;5072302;28;20119;-73
2024/01/22 14:23:15;;;;;;;28.02;4.55;;;;;;;;;;5071591;28;20407;-73